createdAt,value
2019-04-23T00:04:01.099Z,10.22
2019-04-23T00:06:32.285Z,10.15
2019-04-23T00:09:21.191Z,10.10
2019-04-23T00:14:15.152Z,10.17
2019-04-23T00:16:44.045Z,10.08
2019-04-23T00:19:16.856Z,10.13
2019-04-23T00:21:57.338Z,10.06
2019-04-23T00:27:31.984Z,10.08
2019-04-23T00:29:57.619Z,9.95
2019-04-23T00:37:35.433Z,9.77
2019-04-23T00:40:02.974Z,9.65
2019-04-23T00:42:44.702Z,9.48
2019-04-23T00:45:08.304Z,9.57
2019-04-23T00:47:48.306Z,9.56
2019-04-23T00:50:38.513Z,9.45
2019-04-23T00:52:50.281Z,9.42
2019-04-23T00:55:26.170Z,9.37
2019-04-23T00:57:57.845Z,9.30
2019-04-23T01:00:33.693Z,9.18
2019-04-23T01:05:35.601Z,9.32
2019-04-23T01:08:08.318Z,9.22
2019-04-23T01:11:09.607Z,9.15
2019-04-23T01:16:05.413Z,9.10
2019-04-23T01:21:03.428Z,9.03
2019-04-23T01:23:58.897Z,9.03
2019-04-23T01:26:58.263Z,9.00
2019-04-23T01:29:30.520Z,8.98
2019-04-23T01:32:02.810Z,9.00
2019-04-23T01:34:31.290Z,9.03
2019-04-23T01:37:00.787Z,8.96
2019-04-23T01:39:27.791Z,9.00
2019-04-23T01:42:11.841Z,8.88
2019-04-23T01:44:42.076Z,8.82
2019-04-23T01:47:17.314Z,8.74
2019-04-23T01:49:53.943Z,8.77
2019-04-23T01:52:17.930Z,8.80
2019-04-23T01:54:52.853Z,8.68
2019-04-23T01:57:28.928Z,8.63
2019-04-23T01:59:58.445Z,8.61
2019-04-23T02:02:29.820Z,8.55
2019-04-23T02:05:01.375Z,8.60
2019-04-23T02:07:39.936Z,8.57
2019-04-23T02:10:17.811Z,8.59
2019-04-23T02:12:42.261Z,8.59
2019-04-23T02:15:12.226Z,8.56
2019-04-23T02:17:47.442Z,8.51
2019-04-23T02:20:24.191Z,8.49
2019-04-23T02:25:39.675Z,8.46
2019-04-23T02:28:04.814Z,8.37
2019-04-23T02:30:58.223Z,8.42
2019-04-23T02:38:18.468Z,8.27
2019-04-23T02:50:54.052Z,8.09
2019-04-23T02:53:44.343Z,8.07
2019-04-23T02:56:30.912Z,7.99
2019-04-23T02:58:49.045Z,8.00
2019-04-23T03:03:58.035Z,7.96
2019-04-23T03:06:14.212Z,7.97
2019-04-23T03:08:46.638Z,7.96
2019-04-23T03:14:03.639Z,7.90
2019-04-23T03:17:47.275Z,7.89
2019-04-23T03:19:24.187Z,7.85
2019-04-23T03:24:54.990Z,7.83
2019-04-23T03:45:16.713Z,7.66
2019-04-23T03:47:37.301Z,7.60
2019-04-23T03:52:51.057Z,7.57
2019-04-23T03:55:28.069Z,7.54
2019-04-23T03:57:47.945Z,7.55
2019-04-23T04:03:10.786Z,7.48
2019-04-23T04:05:48.270Z,7.51
2019-04-23T04:08:07.957Z,7.47
2019-04-23T04:10:41.629Z,7.48
2019-04-23T04:13:08.704Z,7.52
2019-04-23T04:23:22.725Z,7.46
2019-04-23T04:36:10.717Z,7.53
2019-04-23T04:43:45.248Z,7.73
2019-04-23T04:48:48.771Z,8.50
2019-04-23T04:51:19.442Z,8.91
2019-04-23T05:01:24.843Z,10.13
2019-04-23T05:03:45.823Z,10.43
2019-04-23T05:06:44.570Z,10.40
2019-04-23T05:09:00.682Z,10.42
2019-04-23T05:11:46.095Z,10.58
2019-04-23T05:16:33.470Z,10.75
2019-04-23T05:21:54.454Z,11.42
2019-04-23T05:24:21.464Z,11.42
2019-04-23T05:26:51.774Z,11.39
2019-04-23T05:29:20.058Z,11.68
2019-04-23T05:31:54.893Z,11.77
2019-04-23T05:34:26.319Z,11.88
2019-04-23T05:39:38.167Z,12.14
2019-04-23T05:42:10.753Z,12.41
2019-04-23T05:44:44.824Z,12.19
2019-04-23T05:47:25.464Z,12.60
2019-04-23T05:52:24.482Z,12.66
2019-04-23T05:54:56.238Z,13.03
2019-04-23T05:57:20.557Z,13.11
2019-04-23T05:59:54.878Z,13.22
2019-04-23T06:02:33.779Z,13.56
2019-04-23T06:05:03.791Z,13.56
2019-04-23T06:07:39.306Z,13.36
2019-04-23T06:10:14.562Z,13.27
2019-04-23T06:12:36.872Z,13.57
2019-04-23T06:15:13.404Z,13.58
2019-04-23T06:17:46.629Z,14.20
2019-04-23T06:20:15.400Z,14.79
2019-04-23T06:22:51.027Z,14.26
2019-04-23T06:25:39.933Z,14.51
2019-04-23T06:27:59.271Z,14.65
2019-04-23T06:30:38.738Z,14.75
2019-04-23T06:32:59.648Z,15.09
2019-04-23T06:35:43.800Z,14.83
2019-04-23T06:40:43.594Z,15.53
2019-04-23T06:43:21.489Z,15.48
2019-04-23T06:45:45.982Z,15.41
2019-04-23T06:48:28.918Z,15.42
2019-04-23T06:50:58.820Z,15.11
2019-04-23T06:53:23.958Z,14.90
2019-04-23T06:56:08.854Z,15.18
2019-04-23T06:58:39.773Z,15.72
2019-04-23T07:01:07.624Z,15.35
2019-04-23T07:09:09.918Z,15.20
2019-04-23T07:16:34.722Z,16.01
2019-04-23T07:18:54.595Z,15.97
2019-04-23T07:21:27.955Z,16.48
2019-04-23T07:29:11.015Z,17.01
2019-04-23T07:34:20.413Z,16.76
2019-04-23T07:36:45.843Z,17.51
2019-04-23T07:39:23.030Z,17.10
2019-04-23T07:45:02.012Z,17.31
2019-04-23T07:48:01.859Z,17.04
2019-04-23T07:50:38.164Z,17.09
2019-04-23T07:55:34.396Z,17.32
2019-04-23T07:58:06.513Z,17.33
2019-04-23T08:00:44.364Z,18.09
2019-04-23T08:03:17.636Z,17.77
2019-04-23T08:05:39.582Z,17.73
2019-04-23T08:08:11.758Z,18.16
2019-04-23T08:11:23.441Z,17.86
2019-04-23T08:16:18.035Z,17.57
2019-04-23T08:18:52.681Z,18.16
2019-04-23T08:21:14.862Z,18.51
2019-04-23T08:30:24.064Z,18.30
2019-04-23T08:32:06.938Z,18.19
2019-04-23T08:39:43.565Z,19.68
2019-04-23T08:42:36.671Z,19.57
2019-04-23T08:45:07.117Z,19.20
2019-04-23T08:49:56.720Z,19.72
2019-04-23T08:52:37.654Z,19.79
2019-04-23T08:55:08.327Z,20.22
2019-04-23T08:57:39.775Z,20.08
2019-04-23T09:00:17.676Z,20.09
2019-04-23T09:02:56.701Z,20.55
2019-04-23T09:05:23.533Z,20.02
2019-04-23T09:07:59.987Z,20.73
2019-04-23T09:10:29.965Z,19.97
2019-04-23T09:13:09.147Z,20.55
2019-04-23T09:18:06.406Z,20.64
2019-04-23T09:20:32.779Z,20.39
2019-04-23T09:23:01.940Z,21.25
2019-04-23T09:28:21.123Z,19.98
2019-04-23T09:30:49.560Z,20.07
2019-04-23T09:33:49.794Z,19.79
2019-04-23T09:39:10.086Z,18.96
2019-04-23T09:41:43.575Z,17.83
2019-04-23T09:44:57.107Z,17.97
2019-04-23T09:49:46.540Z,19.22
2019-04-23T09:52:20.147Z,20.42
2019-04-23T09:55:02.104Z,20.58
2019-04-23T09:57:26.506Z,20.43
2019-04-23T10:00:01.673Z,20.90
2019-04-23T10:02:23.704Z,21.48
2019-04-23T10:04:51.989Z,22.01
2019-04-23T10:07:21.199Z,22.21
2019-04-23T10:09:42.383Z,21.50
2019-04-23T10:12:14.650Z,21.38
2019-04-23T10:14:56.702Z,20.87
2019-04-23T10:17:19.919Z,19.74
2019-04-23T10:19:50.932Z,20.86
2019-04-23T10:22:22.956Z,21.71
2019-04-23T10:24:55.283Z,21.39
2019-04-23T10:27:27.302Z,20.60
2019-04-23T10:29:59.496Z,20.68
2019-04-23T10:32:31.772Z,20.69
2019-04-23T10:35:14.783Z,20.43
2019-04-23T10:37:46.088Z,19.24
2019-04-23T10:40:14.275Z,18.53
2019-04-23T10:42:44.015Z,18.21
2019-04-23T10:45:48.397Z,17.72
2019-04-23T10:48:49.955Z,17.37
2019-04-23T10:51:37.008Z,17.62
2019-04-23T10:54:15.819Z,17.90
2019-04-23T10:56:40.823Z,18.21
2019-04-23T10:59:15.044Z,18.18
2019-04-23T11:01:45.509Z,18.09
2019-04-23T11:04:34.067Z,18.14
2019-04-23T11:09:34.806Z,17.73
2019-04-23T11:12:12.787Z,17.66
2019-04-23T11:14:42.158Z,18.06
2019-04-23T11:19:54.492Z,18.56
2019-04-23T11:22:36.198Z,18.51
2019-04-23T11:24:48.392Z,18.09
2019-04-23T11:27:22.181Z,18.05
2019-04-23T11:30:04.015Z,18.14
2019-04-23T11:35:14.322Z,18.28
2019-04-23T11:37:40.953Z,18.02
2019-04-23T11:40:13.769Z,18.21
2019-04-23T11:42:38.214Z,18.38
2019-04-23T11:45:14.489Z,18.35
2019-04-23T11:48:13.965Z,18.56
2019-04-23T11:50:24.286Z,18.61
2019-04-23T11:52:51.739Z,18.62
2019-04-23T11:58:00.771Z,19.01
2019-04-23T12:00:26.467Z,19.48
2019-04-23T12:03:04.173Z,19.20
2019-04-23T12:08:56.705Z,18.87
2019-04-23T12:12:31.191Z,18.72
2019-04-23T12:14:30.535Z,18.97
2019-04-23T12:19:53.029Z,18.89
2019-04-23T12:22:07.825Z,19.13
2019-04-23T12:27:17.068Z,18.93
2019-04-23T12:29:50.649Z,18.70
2019-04-23T12:35:04.386Z,18.88
2019-04-23T12:45:27.127Z,18.96
2019-04-23T12:47:59.883Z,18.32
2019-04-23T12:58:01.174Z,18.95
2019-04-23T13:00:47.805Z,18.72
2019-04-23T13:03:18.289Z,18.47
2019-04-23T13:05:34.045Z,18.27
2019-04-23T13:10:47.978Z,18.01
2019-04-23T13:13:40.652Z,18.04
2019-04-23T13:16:12.749Z,17.97
2019-04-23T13:20:58.585Z,18.02
2019-04-23T13:23:32.723Z,18.02
2019-04-23T13:26:18.420Z,17.91
2019-04-23T13:28:37.549Z,17.85
2019-04-23T13:31:10.640Z,17.71
2019-04-23T13:33:58.467Z,17.68
2019-04-23T13:38:48.796Z,17.77
2019-04-23T13:41:20.392Z,17.94
2019-04-23T13:44:09.537Z,17.96
2019-04-23T13:46:32.460Z,17.90
2019-04-23T13:49:00.578Z,17.76
2019-04-23T13:51:39.379Z,17.64
2019-04-23T13:54:46.806Z,17.61
2019-04-23T13:57:12.916Z,17.52
2019-04-23T13:59:22.542Z,17.58
2019-04-23T14:01:48.051Z,17.59
2019-04-23T14:07:25.178Z,17.59
2019-04-23T14:09:54.914Z,17.58
2019-04-23T14:12:22.329Z,17.69
2019-04-23T14:15:14.911Z,17.85
2019-04-23T14:17:37.980Z,18.06
2019-04-23T14:20:05.713Z,18.18
2019-04-23T14:23:04.588Z,18.19
2019-04-23T14:25:08.346Z,18.12
2019-04-23T14:28:05.817Z,17.80
2019-04-23T14:32:45.725Z,17.41
2019-04-23T14:35:28.444Z,17.31
2019-04-23T14:38:04.984Z,17.22
2019-04-23T14:40:29.804Z,17.20
2019-04-23T14:43:03.425Z,17.07
2019-04-23T14:46:12.093Z,17.02
2019-04-23T14:48:08.361Z,16.93
2019-04-23T14:53:18.507Z,16.87
2019-04-23T14:58:20.708Z,17.05
2019-04-23T15:01:14.116Z,17.07
2019-04-23T15:03:32.444Z,16.43
2019-04-23T15:08:40.330Z,16.17
2019-04-23T15:11:19.269Z,16.28
2019-04-23T15:13:44.645Z,16.47
2019-04-23T15:16:17.017Z,16.65
2019-04-23T15:19:25.686Z,16.84
2019-04-23T15:27:45.667Z,17.02
2019-04-23T15:29:01.422Z,17.01
2019-04-23T15:34:30.461Z,16.91
2019-04-23T15:37:15.519Z,16.87
2019-04-23T15:42:08.093Z,16.65
2019-04-23T15:44:16.172Z,16.51
2019-04-23T15:49:37.567Z,16.46
2019-04-23T15:54:42.954Z,16.36
2019-04-23T15:57:45.203Z,16.32
2019-04-23T15:59:53.165Z,16.34
2019-04-23T16:01:50.580Z,16.36
2019-04-23T16:04:21.401Z,16.42
2019-04-23T16:06:52.202Z,16.46
2019-04-23T16:10:00.025Z,16.52
2019-04-23T16:12:17.776Z,16.62
2019-04-23T16:15:03.044Z,16.74
2019-04-23T16:22:38.206Z,17.05
2019-04-23T16:27:44.274Z,16.96
2019-04-23T16:36:05.955Z,16.77
2019-04-23T16:38:38.728Z,16.73
2019-04-23T16:41:07.915Z,16.61
2019-04-23T16:43:40.397Z,16.57
2019-04-23T16:46:11.882Z,16.50
2019-04-23T16:54:10.020Z,16.46
2019-04-23T16:57:01.246Z,16.42
2019-04-23T17:02:02.064Z,16.37
2019-04-23T17:09:48.119Z,16.30
2019-04-23T17:12:10.477Z,16.27
2019-04-23T17:14:41.442Z,16.20
2019-04-23T17:17:23.005Z,16.11
2019-04-23T17:20:06.485Z,16.08
2019-04-23T17:22:35.304Z,16.09
2019-04-23T17:25:15.962Z,16.02
2019-04-23T17:27:48.930Z,16.01
2019-04-23T17:30:22.182Z,15.95
2019-04-23T17:33:07.889Z,15.91
2019-04-23T17:36:02.770Z,15.93
2019-04-23T17:38:23.289Z,15.88
2019-04-23T17:41:07.354Z,15.82
2019-04-23T17:43:44.374Z,15.73
2019-04-23T17:46:14.362Z,15.74
2019-04-23T17:49:01.891Z,15.65
2019-04-23T17:51:44.802Z,15.56
2019-04-23T17:54:06.486Z,15.54
2019-04-23T17:59:18.033Z,15.49
2019-04-23T18:02:16.438Z,15.40
2019-04-23T18:04:33.010Z,15.34
2019-04-23T18:07:05.671Z,15.38
2019-04-23T18:09:51.692Z,15.36
2019-04-23T18:12:22.631Z,15.34
2019-04-23T18:14:50.870Z,15.28
2019-04-23T18:17:35.563Z,15.23
2019-04-23T18:20:12.447Z,15.25
2019-04-23T18:22:47.033Z,15.21
2019-04-23T18:25:23.965Z,15.23
2019-04-23T18:28:16.264Z,15.23
2019-04-23T18:31:01.460Z,15.32
2019-04-23T18:33:54.351Z,15.34
2019-04-23T18:36:08.210Z,15.27
2019-04-23T18:41:26.133Z,15.25
2019-04-23T18:44:02.911Z,15.18
2019-04-23T18:46:43.787Z,15.12
2019-04-23T18:49:22.267Z,15.13
2019-04-23T18:51:58.081Z,15.14
2019-04-23T18:54:34.716Z,15.20
2019-04-23T19:02:49.437Z,15.08
2019-04-23T19:05:32.760Z,15.08
2019-04-23T19:11:13.657Z,15.12
2019-04-23T19:13:50.875Z,15.06
2019-04-23T19:16:28.011Z,15.00
2019-04-23T19:19:04.504Z,14.98
2019-04-23T19:22:07.064Z,15.08
2019-04-23T19:24:22.900Z,15.04
2019-04-23T19:27:10.685Z,15.07
2019-04-23T19:29:46.280Z,15.01
2019-04-23T19:32:06.736Z,14.96
2019-04-23T19:34:43.830Z,14.92
2019-04-23T19:37:23.160Z,14.86
2019-04-23T19:39:53.395Z,14.86
2019-04-23T19:42:44.723Z,14.75
2019-04-23T19:45:15.990Z,14.70
2019-04-23T19:47:55.893Z,14.67
2019-04-23T19:50:23.949Z,14.58
2019-04-23T19:55:35.197Z,14.43
2019-04-23T20:01:03.727Z,14.33
2019-04-23T20:03:28.257Z,14.28
2019-04-23T20:06:06.005Z,14.24
2019-04-23T20:09:12.509Z,14.13
2019-04-23T20:11:13.525Z,14.04
2019-04-23T20:16:46.553Z,13.84
2019-04-23T20:18:54.803Z,13.77
2019-04-23T20:21:38.912Z,13.65
2019-04-23T20:24:21.482Z,13.53
2019-04-23T20:26:45.904Z,13.45
2019-04-23T20:40:31.505Z,13.13
2019-04-23T20:48:32.145Z,12.82
2019-04-23T20:50:44.562Z,12.73
2019-04-23T20:53:19.475Z,12.71
2019-04-23T20:58:47.661Z,12.64
2019-04-23T21:01:18.645Z,12.65
2019-04-23T21:03:46.977Z,12.62
2019-04-23T21:06:30.525Z,12.59
2019-04-23T21:11:14.483Z,12.55
2019-04-23T21:16:26.791Z,12.45
2019-04-23T21:19:10.599Z,12.44
2019-04-23T21:21:35.431Z,12.42
2019-04-23T21:24:00.048Z,12.35
2019-04-23T21:26:37.236Z,12.36
2019-04-23T21:28:59.148Z,12.36
2019-04-23T21:36:49.430Z,12.23
2019-04-23T21:40:00.992Z,12.20
2019-04-23T21:42:21.205Z,12.13
2019-04-23T21:44:57.968Z,12.05
2019-04-23T21:47:25.536Z,12.03
2019-04-23T21:50:19.159Z,12.05
2019-04-23T21:52:34.803Z,12.10
2019-04-23T21:55:02.542Z,12.02
2019-04-23T21:57:44.301Z,11.96
2019-04-23T22:00:08.663Z,11.94
2019-04-23T22:02:49.044Z,11.80
2019-04-23T22:05:19.436Z,11.71
2019-04-23T22:08:02.507Z,11.75
2019-04-23T22:15:34.162Z,11.59
2019-04-23T22:17:59.369Z,11.56
2019-04-23T22:20:34.700Z,11.56
2019-04-23T22:23:12.880Z,11.61
2019-04-23T22:25:52.656Z,11.59
2019-04-23T22:28:10.292Z,11.57
2019-04-23T22:30:55.012Z,11.57
2019-04-23T22:33:19.621Z,11.60
2019-04-23T22:35:55.581Z,11.58
2019-04-23T22:38:30.086Z,11.67
2019-04-23T22:41:01.825Z,11.69
2019-04-23T22:43:40.100Z,11.71
2019-04-23T22:49:09.170Z,11.74
2019-04-23T22:51:29.065Z,11.70
2019-04-23T22:54:05.433Z,11.74
2019-04-23T22:56:35.522Z,11.78
2019-04-23T23:04:18.581Z,11.85
2019-04-23T23:06:57.209Z,11.83
2019-04-23T23:09:25.814Z,11.84
2019-04-23T23:11:54.098Z,11.87
2019-04-23T23:14:24.320Z,11.86
2019-04-23T23:16:56.617Z,11.83
2019-04-23T23:19:29.583Z,11.86
2019-04-23T23:22:03.335Z,11.90
2019-04-23T23:24:27.767Z,11.95
2019-04-23T23:27:15.202Z,11.92
2019-04-23T23:29:41.942Z,11.92
2019-04-23T23:32:14.596Z,11.91
2019-04-23T23:35:04.346Z,11.92
2019-04-23T23:37:15.547Z,11.99
2019-04-23T23:39:58.501Z,11.95
2019-04-23T23:42:15.505Z,11.95
2019-04-23T23:45:03.411Z,11.96
2019-04-23T23:47:30.124Z,11.96
2019-04-23T23:50:00.941Z,11.95
2019-04-23T23:52:35.106Z,11.96
2019-04-23T23:55:07.725Z,11.90
2019-04-23T23:57:34.538Z,11.93
